Time;durP1;ratioP1;P1;durP2;ratioP2;P2;SDS_P1;SDS_P2;PMS_P1;PMS_P2;Temp;Humidity;BMP_temperature;BMP_pressure;BME280_temperature;BME280_humidity;BME280_pressure;Samples;Min_cycle;Max_cycle;Signal;HPM_P1;HPM_P2
2023/07/05 00:00:16;;;;;;;0.00;0.00;;;;;;;17.62;58.96;100342.28;7363154;19;20011;-59
2023/07/05 00:02:41;;;;;;;0.10;0.10;;;;;;;17.63;59.14;100343.13;7361159;19;20014;-59
2023/07/05 00:05:07;;;;;;;0.10;0.10;;;;;;;17.62;58.95;100344.06;7359908;19;20039;-57
2023/07/05 00:07:33;;;;;;;0.10;0.10;;;;;;;17.60;58.76;100343.31;7360284;19;20024;-59
2023/07/05 00:09:59;;;;;;;0.05;0.05;;;;;;;17.59;59.10;100344.28;7359624;19;20592;-59
2023/07/05 00:12:25;;;;;;;0.10;0.10;;;;;;;17.57;58.89;100338.22;7361012;19;20006;-59
2023/07/05 00:14:51;;;;;;;0.10;0.10;;;;;;;17.47;58.60;100326.47;7359841;19;20026;-59
2023/07/05 00:17:16;;;;;;;0.10;0.10;;;;;;;17.54;58.51;100338.41;7360973;19;20011;-59
2023/07/05 00:19:42;;;;;;;0.10;0.10;;;;;;;17.51;58.90;100343.84;7358622;19;20007;-59
2023/07/05 00:22:07;;;;;;;0.00;0.00;;;;;;;17.48;58.86;100344.84;7360777;19;20041;-59
2023/07/05 00:24:33;;;;;;;0.00;0.00;;;;;;;17.43;58.69;100349.53;7359879;19;20019;-58
2023/07/05 00:26:58;;;;;;;0.03;0.03;;;;;;;17.40;58.54;100346.25;7365133;19;20029;-59
2023/07/05 00:29:24;;;;;;;0.10;0.10;;;;;;;17.36;58.39;100345.56;7362871;19;20022;-59
2023/07/05 00:31:49;;;;;;;0.00;0.00;;;;;;;17.30;58.93;100354.69;7364664;19;20018;-59
2023/07/05 00:34:14;;;;;;;0.10;0.10;;;;;;;17.23;58.60;100345.38;7361701;19;20465;-59
2023/07/05 00:36:40;;;;;;;0.10;0.10;;;;;;;17.17;58.25;100345.72;7364051;19;20496;-59
2023/07/05 00:39:05;;;;;;;0.10;0.10;;;;;;;17.11;58.11;100346.06;7364078;19;20026;-59
2023/07/05 00:41:31;;;;;;;0.00;0.00;;;;;;;17.03;58.25;100343.00;7364656;19;20027;-59
2023/07/05 00:43:56;;;;;;;0.08;0.08;;;;;;;16.95;58.13;100350.50;7362294;19;26230;-59
2023/07/05 00:46:25;;;;;;;0.00;0.00;;;;;;;16.88;58.55;100349.13;7362614;19;20010;-60
2023/07/05 00:49:14;;;;;;;0.03;0.03;;;;;;;16.80;57.59;100353.03;7361879;19;20007;-59
2023/07/05 00:52:05;;;;;;;0.10;0.10;;;;;;;16.72;57.98;100355.22;7363533;19;20006;-59
2023/07/05 00:54:44;;;;;;;0.00;0.00;;;;;;;16.64;57.79;100353.91;7262804;19;2004352;-59
2023/07/05 00:57:22;;;;;;;0.10;0.10;;;;;;;16.55;57.63;100348.19;7362667;19;20010;-60
2023/07/05 00:59:55;;;;;;;0.05;0.05;;;;;;;16.48;58.03;100356.50;7361736;19;20081;-59
2023/07/05 01:02:22;;;;;;;0.08;0.08;;;;;;;16.39;58.11;100359.63;7363209;19;20481;-60
2023/07/05 01:04:48;;;;;;;0.00;0.00;;;;;;;16.30;58.46;100348.63;7362281;19;20202;-59
2023/07/05 01:07:14;;;;;;;0.10;0.10;;;;;;;16.24;58.55;100353.38;7360316;19;20042;-59
2023/07/05 01:09:39;;;;;;;0.08;0.08;;;;;;;16.17;58.56;100360.75;7363634;19;20019;-59
2023/07/05 01:12:11;;;;;;;0.10;0.10;;;;;;;16.10;58.19;100356.69;7363830;19;20010;-60
2023/07/05 01:15:03;;;;;;;0.10;0.10;;;;;;;16.05;57.79;100356.09;7362503;19;20476;-59
2023/07/05 01:17:47;;;;;;;0.10;0.10;;;;;;;15.96;57.80;100354.75;7261281;19;2004826;-59
2023/07/05 01:20:21;;;;;;;0.00;0.00;;;;;;;15.89;58.70;100356.00;7358206;19;20014;-59
2023/07/05 01:23:11;;;;;;;0.00;0.00;;;;;;;15.84;57.51;100360.66;7360187;19;20553;-59
2023/07/05 01:26:06;;;;;;;0.00;0.00;;;;;;;15.77;57.93;100354.84;7361191;19;20033;-59
2023/07/05 01:28:37;;;;;;;0.10;0.10;;;;;;;15.71;58.01;100368.31;7260486;19;2004385;-59
2023/07/05 01:31:37;;;;;;;0.00;0.00;;;;;;;15.65;57.83;100363.34;7362528;19;20756;-59
2023/07/05 01:34:22;;;;;;;0.00;0.00;;;;;;;15.58;57.89;100367.16;7260399;19;2004197;-59
2023/07/05 01:36:48;;;;;;;0.00;0.00;;;;;;;15.50;59.29;100367.53;7362068;19;20466;-58
2023/07/05 01:39:13;;;;;;;0.10;0.10;;;;;;;15.46;58.96;100365.13;7360967;19;20014;-59
2023/07/05 01:41:39;;;;;;;0.00;0.00;;;;;;;15.40;58.87;100368.06;7363175;19;20081;-59
2023/07/05 01:44:06;;;;;;;0.10;0.10;;;;;;;15.33;59.25;100364.88;7361024;19;20010;-59
2023/07/05 01:47:15;;;;;;;0.00;0.00;;;;;;;15.28;58.06;100362.47;7361660;19;20029;-59
2023/07/05 01:49:59;;;;;;;0.10;0.10;;;;;;;15.21;59.24;100371.56;7255492;19;2004406;-59
2023/07/05 01:52:27;;;;;;;0.00;0.00;;;;;;;15.16;59.49;100362.19;7359928;19;20466;-59
2023/07/05 01:55:01;;;;;;;;;;;;;;;15.12;57.45;100379.88;7362312;19;20022;-58
2023/07/05 01:57:37;;;;;;;0.00;0.00;;;;;;;15.08;59.46;100375.69;7360958;19;20266;-59
2023/07/05 02:00:08;;;;;;;0.00;0.00;;;;;;;15.04;59.35;100379.38;7359985;19;20022;-59
2023/07/05 02:02:39;;;;;;;0.10;0.10;;;;;;;14.91;59.38;100357.22;7356376;19;20074;-59
2023/07/05 02:05:08;;;;;;;0.00;0.00;;;;;;;14.96;59.79;100381.53;7356986;19;20018;-59
2023/07/05 02:07:34;;;;;;;0.10;0.10;;;;;;;14.92;60.03;100382.59;7356461;19;20011;-59
2023/07/05 02:09:59;;;;;;;0.10;0.10;;;;;;;14.71;60.43;100345.84;7356025;19;20010;-59
2023/07/05 02:12:26;;;;;;;0.00;0.00;;;;;;;14.86;60.52;100380.25;7357224;19;20013;-59
2023/07/05 02:14:51;;;;;;;0.10;0.10;;;;;;;14.83;60.66;100372.47;7356369;19;20011;-60
2023/07/05 02:17:19;;;;;;;0.10;0.10;;;;;;;14.81;60.59;100379.59;7355309;19;20037;-59
2023/07/05 02:19:44;;;;;;;0.00;0.00;;;;;;;14.78;60.57;100378.78;7356051;19;20032;-59
2023/07/05 02:22:09;;;;;;;0.00;0.00;;;;;;;14.73;60.07;100386.03;7357557;19;20078;-60
2023/07/05 02:24:35;;;;;;;0.00;0.00;;;;;;;14.71;60.52;100380.00;7358315;19;21816;-59
2023/07/05 02:27:00;;;;;;;0.00;0.00;;;;;;;14.68;60.79;100382.75;7361606;19;20006;-59
2023/07/05 02:29:26;;;;;;;0.00;0.00;;;;;;;14.64;60.33;100375.94;7361734;19;20010;-59
2023/07/05 02:31:52;;;;;;;0.10;0.10;;;;;;;14.62;60.72;100392.69;7360514;19;20023;-59
2023/07/05 02:34:17;;;;;;;0.00;0.00;;;;;;;14.58;60.59;100385.88;7362512;19;20011;-59
2023/07/05 02:36:42;;;;;;;0.00;0.00;;;;;;;14.52;60.34;100393.09;7357507;19;20345;-59
2023/07/05 02:39:08;;;;;;;0.00;0.00;;;;;;;14.49;60.68;100387.97;7358003;19;20014;-59
2023/07/05 02:41:33;;;;;;;0.00;0.00;;;;;;;14.44;60.61;100395.16;7360891;19;20021;-59
2023/07/05 02:43:59;;;;;;;0.00;0.00;;;;;;;14.40;60.71;100387.50;7360206;19;20017;-59
2023/07/05 02:46:26;;;;;;;0.00;0.00;;;;;;;14.22;60.67;100366.34;7360171;19;20743;-59
2023/07/05 02:48:57;;;;;;;0.10;0.10;;;;;;;14.34;60.75;100393.00;7359284;19;20015;-59
2023/07/05 02:51:22;;;;;;;0.10;0.10;;;;;;;14.28;60.58;100384.47;7360286;19;20006;-59
2023/07/05 02:53:48;;;;;;;0.00;0.00;;;;;;;14.25;61.03;100383.78;7360631;19;20026;-59
2023/07/05 02:56:15;;;;;;;0.00;0.00;;;;;;;14.22;61.09;100389.13;7359454;19;20014;-60
2023/07/05 02:58:40;;;;;;;0.10;0.10;;;;;;;14.18;60.83;100380.53;7359223;19;20026;-59
2023/07/05 03:01:06;;;;;;;0.00;0.00;;;;;;;14.16;61.17;100394.66;7361334;19;20883;-59
2023/07/05 03:03:31;;;;;;;0.00;0.00;;;;;;;14.11;60.74;100386.97;7358898;19;20161;-58
2023/07/05 03:05:58;;;;;;;0.00;0.00;;;;;;;14.09;61.56;100383.56;7358593;19;20015;-59
2023/07/05 03:08:25;;;;;;;0.00;0.00;;;;;;;13.97;61.31;100373.56;7360662;19;21777;-59
2023/07/05 03:10:58;;;;;;;0.00;0.00;;;;;;;14.01;60.67;100385.66;7359811;19;20099;-59
2023/07/05 03:13:32;;;;;;;0.10;0.10;;;;;;;13.98;60.69;100377.91;7360267;19;20383;-59
2023/07/05 03:15:58;;;;;;;0.00;0.00;;;;;;;13.93;61.35;100379.84;7349575;19;20042;-59
2023/07/05 03:18:25;;;;;;;0.00;0.00;;;;;;;13.88;61.78;100380.03;7352801;19;21055;-59
2023/07/05 03:20:51;;;;;;;0.10;0.10;;;;;;;13.87;61.77;100388.84;7358450;19;20015;-59
2023/07/05 03:23:17;;;;;;;0.00;0.00;;;;;;;13.85;62.26;100379.34;7360904;19;20027;-59
2023/07/05 03:26:02;;;;;;;0.00;0.00;;;;;;;13.84;61.23;100388.09;7364416;19;20018;-59
2023/07/05 03:28:29;;;;;;;0.00;0.00;;;;;;;13.84;62.00;100382.84;7365728;19;20031;-59
2023/07/05 03:31:01;;;;;;;0.10;0.10;;;;;;;13.84;61.89;100385.47;7364007;19;20014;-58
2023/07/05 03:33:27;;;;;;;0.00;0.00;;;;;;;13.84;62.44;100386.38;7365132;19;20021;-59
2023/07/05 03:35:55;;;;;;;0.00;0.00;;;;;;;13.81;62.46;100372.50;7366590;19;20014;-59
2023/07/05 03:38:20;;;;;;;0.10;0.10;;;;;;;13.85;62.27;100384.59;7363973;19;20010;-59
2023/07/05 03:40:45;;;;;;;0.10;0.10;;;;;;;13.86;61.90;100381.03;7366120;19;21672;-59
2023/07/05 03:43:11;;;;;;;0.00;0.00;;;;;;;13.86;62.40;100381.88;7365058;19;20007;-59
2023/07/05 03:45:36;;;;;;;0.00;0.00;;;;;;;13.87;62.46;100377.50;7365520;19;20003;-59
2023/07/05 03:48:02;;;;;;;0.00;0.00;;;;;;;13.87;62.47;100380.13;7365013;19;20027;-59
2023/07/05 03:50:27;;;;;;;0.00;0.00;;;;;;;13.88;62.93;100374.78;7366600;19;20374;-60
2023/07/05 03:52:53;;;;;;;0.00;0.00;;;;;;;13.91;62.22;100379.09;7365735;19;20425;-59
2023/07/05 03:55:19;;;;;;;0.00;0.00;;;;;;;13.91;62.25;100379.94;7365540;19;20018;-59
2023/07/05 03:57:44;;;;;;;0.00;0.00;;;;;;;13.92;62.52;100379.00;7364545;19;20017;-59
2023/07/05 04:00:10;;;;;;;0.00;0.00;;;;;;;13.92;62.19;100375.53;7366432;19;20007;-59
2023/07/05 04:02:36;;;;;;;0.00;0.00;;;;;;;13.91;62.85;100384.34;7361513;19;20011;-59
2023/07/05 04:05:01;;;;;;;0.08;0.08;;;;;;;13.93;62.68;100388.59;7360994;19;20825;-59
2023/07/05 04:07:29;;;;;;;0.10;0.10;;;;;;;13.94;62.55;100387.69;7360185;19;20022;-59
2023/07/05 04:09:54;;;;;;;0.08;0.08;;;;;;;13.95;62.38;100385.91;7360428;19;20011;-59
2023/07/05 04:12:19;;;;;;;0.08;0.08;;;;;;;13.96;62.74;100387.63;7361177;19;20586;-59
2023/07/05 04:14:45;;;;;;;0.00;0.00;;;;;;;13.95;62.63;100385.91;7361135;19;20741;-59
2023/07/05 04:17:10;;;;;;;0.00;0.00;;;;;;;13.95;62.65;100386.78;7360866;19;20018;-59
2023/07/05 04:19:36;;;;;;;0.10;0.10;;;;;;;13.95;62.64;100392.03;7359235;19;20078;-59
2023/07/05 04:22:01;;;;;;;0.00;0.00;;;;;;;13.96;63.04;100393.72;7360581;19;20014;-59
2023/07/05 04:24:26;;;;;;;0.00;0.00;;;;;;;13.98;62.71;100396.28;7361907;19;20018;-59
2023/07/05 04:26:52;;;;;;;0.00;0.00;;;;;;;13.98;62.85;100394.50;7364087;19;20019;-59
2023/07/05 04:29:17;;;;;;;0.00;0.00;;;;;;;13.98;62.59;100391.03;7363425;19;20007;-59
2023/07/05 04:31:43;;;;;;;0.08;0.08;;;;;;;14.00;62.92;100394.44;7362149;19;20007;-59
2023/07/05 04:34:08;;;;;;;0.00;0.00;;;;;;;14.00;62.73;100394.44;7364856;19;20045;-59
2023/07/05 04:36:34;;;;;;;0.08;0.08;;;;;;;13.92;63.23;100380.78;7362819;19;20010;-59
2023/07/05 04:39:00;;;;;;;0.00;0.00;;;;;;;14.03;63.19;100389.91;7365614;19;20011;-59
2023/07/05 04:41:27;;;;;;;0.00;0.00;;;;;;;14.04;63.33;100388.16;7363487;19;20014;-59
2023/07/05 04:43:52;;;;;;;0.00;0.00;;;;;;;14.06;63.30;100388.94;7364827;19;20065;-59
2023/07/05 04:46:18;;;;;;;0.10;0.10;;;;;;;14.09;63.19;100396.69;7361521;19;20082;-59
2023/07/05 04:48:44;;;;;;;0.10;0.10;;;;;;;13.96;62.98;100382.38;7366107;19;20560;-59
2023/07/05 04:51:09;;;;;;;0.10;0.10;;;;;;;14.11;63.27;100397.47;7362057;19;20728;-59
2023/07/05 04:53:36;;;;;;;0.00;0.00;;;;;;;14.12;63.41;100403.59;7363910;19;20017;-59
2023/07/05 04:56:01;;;;;;;0.00;0.00;;;;;;;14.13;63.20;100403.50;7359839;19;20014;-59
2023/07/05 04:58:28;;;;;;;0.00;0.00;;;;;;;14.14;63.50;100402.63;7364387;19;20465;-59
2023/07/05 05:01:02;;;;;;;0.10;0.10;;;;;;;14.18;62.76;100404.16;7363332;19;20814;-59
2023/07/05 05:03:27;;;;;;;0.10;0.10;;;;;;;14.18;63.48;100401.53;7363711;19;20238;-59
2023/07/05 05:05:54;;;;;;;0.00;0.00;;;;;;;14.18;63.43;100398.91;7363296;19;21150;-59
2023/07/05 05:08:20;;;;;;;0.08;0.08;;;;;;;14.20;62.63;100399.72;7364393;19;20027;-59
2023/07/05 05:10:58;;;;;;;0.00;0.00;;;;;;;14.22;62.56;100397.88;7363106;19;20022;-59
2023/07/05 05:13:24;;;;;;;0.10;0.10;;;;;;;14.21;63.18;100398.78;7363597;19;20709;-59
2023/07/05 05:15:50;;;;;;;0.10;0.10;;;;;;;14.20;63.55;100399.72;7361789;19;22595;-60
2023/07/05 05:18:16;;;;;;;0.08;0.08;;;;;;;14.18;63.05;100393.66;7364402;19;20023;-59
2023/07/05 05:20:42;;;;;;;0.10;0.10;;;;;;;14.11;63.29;100386.97;7360843;19;20037;-55
2023/07/05 05:23:08;;;;;;;0.10;0.10;;;;;;;14.21;63.06;100393.53;7364298;19;20018;-59
2023/07/05 05:25:34;;;;;;;0.00;0.00;;;;;;;14.26;63.00;100399.44;7361876;19;20007;-58
2023/07/05 05:28:00;;;;;;;0.05;0.05;;;;;;;14.30;62.91;100412.47;7363286;19;20035;-59
2023/07/05 05:30:25;;;;;;;0.10;0.10;;;;;;;14.32;63.66;100405.38;7361755;19;20030;-59
2023/07/05 05:32:51;;;;;;;0.00;0.00;;;;;;;14.31;63.46;100403.66;7361282;19;20010;-59
2023/07/05 05:35:17;;;;;;;0.00;0.00;;;;;;;14.33;63.65;100405.28;7361573;19;20417;-58
2023/07/05 05:37:42;;;;;;;0.00;0.00;;;;;;;14.35;63.73;100405.25;7364052;19;20017;-59
2023/07/05 05:40:09;;;;;;;0.10;0.10;;;;;;;14.37;63.57;100403.38;7363240;19;20014;-59
2023/07/05 05:42:35;;;;;;;0.00;0.00;;;;;;;14.40;63.68;100403.28;7364686;19;20033;-59
2023/07/05 05:45:01;;;;;;;0.00;0.00;;;;;;;14.41;63.76;100402.34;7357211;19;20041;-59
2023/07/05 05:47:26;;;;;;;0.05;0.05;;;;;;;14.42;63.75;100411.94;7363346;19;20023;-59
2023/07/05 05:49:51;;;;;;;0.00;0.00;;;;;;;14.43;63.47;100411.00;7361240;19;20035;-60
2023/07/05 05:52:17;;;;;;;0.10;0.10;;;;;;;14.36;63.17;100391.19;7363543;19;20003;-59
2023/07/05 05:54:42;;;;;;;0.00;0.00;;;;;;;14.46;63.32;100413.50;7359884;19;20100;-59
2023/07/05 05:57:08;;;;;;;0.00;0.00;;;;;;;14.47;63.04;100410.84;7363203;19;20040;-59
2023/07/05 05:59:33;;;;;;;0.10;0.10;;;;;;;14.49;63.51;100418.66;7357401;19;20010;-59
2023/07/05 06:02:00;;;;;;;0.00;0.00;;;;;;;14.50;63.54;100415.13;7357658;19;20018;-59
2023/07/05 06:04:26;;;;;;;0.00;0.00;;;;;;;14.53;63.37;100417.59;7356307;19;20489;-59
2023/07/05 06:06:51;;;;;;;0.00;0.00;;;;;;;14.56;63.76;100425.34;7356264;19;20020;-59
2023/07/05 06:09:17;;;;;;;0.00;0.00;;;;;;;14.25;63.94;100373.25;7358111;19;20010;-59
2023/07/05 06:11:42;;;;;;;0.00;0.00;;;;;;;14.64;63.51;100423.22;7356512;19;20121;-59
2023/07/05 06:14:09;;;;;;;0.00;0.00;;;;;;;14.56;63.97;100406.13;7356261;19;20033;-59
2023/07/05 06:16:34;;;;;;;0.10;0.10;;;;;;;14.69;63.94;100421.25;7356643;19;20011;-59
2023/07/05 06:19:00;;;;;;;0.00;0.00;;;;;;;14.72;63.15;100404.50;7357359;19;20483;-59
2023/07/05 06:21:25;;;;;;;0.10;0.10;;;;;;;14.79;63.90;100414.66;7356648;19;20007;-59
2023/07/05 06:23:51;;;;;;;0.00;0.00;;;;;;;14.84;63.60;100411.00;7357927;19;20017;-58
2023/07/05 06:26:18;;;;;;;0.00;0.00;;;;;;;14.87;63.71;100413.50;7360811;19;20013;-60
2023/07/05 06:28:45;;;;;;;0.10;0.10;;;;;;;14.79;63.37;100396.28;7359789;19;20069;-58
2023/07/05 06:31:11;;;;;;;0.00;0.00;;;;;;;14.93;63.63;100413.22;7360150;19;20074;-59
2023/07/05 06:33:37;;;;;;;0.10;0.10;;;;;;;15.01;63.33;100406.69;7362271;19;20102;-59
2023/07/05 06:36:04;;;;;;;0.10;0.10;;;;;;;15.05;63.12;100407.38;7359540;19;20030;-59
2023/07/05 06:38:30;;;;;;;0.10;0.10;;;;;;;15.07;63.24;100416.06;7359822;19;20022;-59
2023/07/05 06:40:56;;;;;;;0.05;0.05;;;;;;;15.08;63.69;100412.50;7361413;19;20017;-58
2023/07/05 06:43:23;;;;;;;0.10;0.10;;;;;;;15.12;63.57;100414.06;7360775;19;20009;-60
2023/07/05 06:45:53;;;;;;;0.10;0.10;;;;;;;15.19;63.39;100415.50;7359746;19;20015;-59
2023/07/05 06:48:19;;;;;;;0.10;0.10;;;;;;;15.23;63.85;100418.84;7359724;19;20018;-59
2023/07/05 06:50:52;;;;;;;0.00;0.00;;;;;;;15.29;63.88;100416.78;7356619;19;20086;-59
2023/07/05 06:53:17;;;;;;;0.10;0.10;;;;;;;15.32;63.90;100406.13;7358578;19;20011;-59
2023/07/05 06:55:43;;;;;;;0.00;0.00;;;;;;;15.42;63.40;100411.78;7360377;19;20027;-59
2023/07/05 06:58:08;;;;;;;0.00;0.00;;;;;;;15.44;63.77;100406.44;7363100;19;20097;-59
2023/07/05 07:00:34;;;;;;;0.10;0.10;;;;;;;15.49;63.80;100401.81;7366762;19;20045;-59
2023/07/05 07:03:00;;;;;;;0.10;0.10;;;;;;;15.55;63.67;100412.91;7364814;19;20006;-59
2023/07/05 07:05:25;;;;;;;0.10;0.10;;;;;;;15.63;63.27;100419.59;7367683;19;20050;-59
2023/07/05 07:07:51;;;;;;;0.08;0.08;;;;;;;15.68;63.52;100418.47;7365432;19;20011;-59
2023/07/05 07:10:17;;;;;;;0.10;0.10;;;;;;;15.74;62.64;100418.16;7366744;19;20085;-59
2023/07/05 07:12:42;;;;;;;0.10;0.10;;;;;;;15.79;63.14;100421.44;7365606;19;20014;-59
2023/07/05 07:15:08;;;;;;;0.00;0.00;;;;;;;15.86;62.81;100421.13;7368059;19;20085;-59
2023/07/05 07:17:34;;;;;;;0.10;0.10;;;;;;;15.91;62.59;100422.59;7365133;19;20011;-59
2023/07/05 07:19:59;;;;;;;0.10;0.10;;;;;;;15.95;62.87;100420.69;7366282;19;20026;-59
2023/07/05 07:22:24;;;;;;;0.10;0.10;;;;;;;16.00;62.99;100423.94;7362312;19;20097;-60
2023/07/05 07:24:51;;;;;;;0.10;0.10;;;;;;;15.98;63.05;100410.84;7366962;19;20014;-58
2023/07/05 07:27:17;;;;;;;0.10;0.10;;;;;;;16.10;62.89;100419.91;7364163;19;20106;-59
2023/07/05 07:29:42;;;;;;;0.00;0.00;;;;;;;16.18;62.91;100422.19;7366852;19;20018;-59
2023/07/05 07:32:08;;;;;;;0.10;0.10;;;;;;;16.25;62.95;100420.94;7365410;19;20711;-59
2023/07/05 07:34:34;;;;;;;0.10;0.10;;;;;;;16.32;62.60;100417.94;7365770;19;20053;-59
2023/07/05 07:36:59;;;;;;;0.00;0.00;;;;;;;16.39;62.64;100425.50;7364364;19;20784;-59
2023/07/05 07:39:25;;;;;;;0.05;0.05;;;;;;;16.48;61.97;100419.78;7366027;19;20015;-59
2023/07/05 07:41:50;;;;;;;0.10;0.10;;;;;;;16.54;62.15;100424.72;7364181;19;20010;-59
2023/07/05 07:44:19;;;;;;;0.10;0.10;;;;;;;16.59;61.92;100417.44;7365613;19;20014;-59
2023/07/05 07:46:45;;;;;;;0.10;0.10;;;;;;;16.51;62.03;100414.31;7364123;19;20106;-59
2023/07/05 07:49:11;;;;;;;0.10;0.10;;;;;;;16.63;61.23;100432.16;7365692;19;20041;-53
2023/07/05 07:51:39;;;;;;;0.10;0.10;;;;;;;16.67;61.35;100431.03;7364288;19;20006;-59
2023/07/05 07:54:06;;;;;;;0.08;0.08;;;;;;;16.68;61.69;100427.50;7365468;19;20006;-59
2023/07/05 07:56:31;;;;;;;0.10;0.10;;;;;;;16.71;61.50;100427.34;7363859;19;20114;-59
2023/07/05 07:59:01;;;;;;;0.03;0.03;;;;;;;16.75;61.66;100434.16;7365359;19;20023;-59
2023/07/05 08:01:32;;;;;;;0.10;0.10;;;;;;;16.81;61.28;100443.53;7363019;19;20021;-59
2023/07/05 08:04:00;;;;;;;0.10;0.10;;;;;;;16.83;61.48;100437.28;7362240;19;20017;-59
2023/07/05 08:06:36;;;;;;;0.10;0.10;;;;;;;16.91;61.28;100441.28;7356479;19;20006;-59
2023/07/05 08:09:02;;;;;;;0.10;0.10;;;;;;;16.93;61.21;100432.38;7360814;19;20822;-59
2023/07/05 08:11:29;;;;;;;0.05;0.05;;;;;;;16.98;60.72;100432.97;7360756;19;20030;-58
2023/07/05 08:13:54;;;;;;;0.10;0.10;;;;;;;16.92;61.07;100416.59;7361729;19;20011;-59
2023/07/05 08:16:21;;;;;;;0.00;0.00;;;;;;;17.08;61.17;100439.47;7358804;19;20006;-59
2023/07/05 08:18:46;;;;;;;0.10;0.10;;;;;;;17.12;61.00;100437.47;7360873;19;20111;-59
2023/07/05 08:21:15;;;;;;;0.00;0.00;;;;;;;17.21;60.88;100436.13;7359580;19;20030;-59
2023/07/05 08:23:42;;;;;;;0.10;0.10;;;;;;;17.22;60.39;100436.03;7360787;19;21061;-59
2023/07/05 08:26:07;;;;;;;0.10;0.10;;;;;;;17.11;60.12;100404.13;7363774;19;20013;-59
2023/07/05 08:28:33;;;;;;;0.10;0.10;;;;;;;17.34;60.29;100432.75;7364162;19;20011;-59
2023/07/05 08:31:01;;;;;;;0.10;0.10;;;;;;;17.40;60.33;100436.84;7363782;19;20014;-59
2023/07/05 08:33:28;;;;;;;0.10;0.10;;;;;;;17.45;60.09;100436.59;7362464;19;20014;-58
2023/07/05 08:36:06;;;;;;;0.10;0.10;;;;;;;17.53;59.98;100437.00;7364431;19;20015;-59
2023/07/05 08:38:32;;;;;;;0.10;0.10;;;;;;;17.55;59.81;100424.59;7363464;19;20387;-59
2023/07/05 08:41:27;;;;;;;0.10;0.10;;;;;;;17.71;59.71;100441.25;7363842;19;20018;-59
2023/07/05 08:44:06;;;;;;;0.10;0.10;;;;;;;17.68;59.56;100420.28;7261702;19;2004062;-59
2023/07/05 08:46:32;;;;;;;0.10;0.10;;;;;;;17.83;58.99;100430.03;7361978;19;20035;-59
2023/07/05 08:49:07;;;;;;;0.10;0.10;;;;;;;17.95;58.92;100432.91;7362056;19;20051;-58
2023/07/05 08:51:33;;;;;;;0.10;0.10;;;;;;;17.98;58.01;100430.09;7362117;19;20014;-59
2023/07/05 08:54:04;;;;;;;0.10;0.10;;;;;;;18.07;58.04;100429.56;7365498;19;20840;-59
2023/07/05 08:56:38;;;;;;;0.10;0.10;;;;;;;18.16;58.60;100436.97;7361142;19;20456;-59
2023/07/05 08:59:28;;;;;;;0.00;0.00;;;;;;;18.16;58.47;100421.09;7363540;19;20014;-59
2023/07/05 09:01:56;;;;;;;0.10;0.10;;;;;;;18.36;58.64;100428.69;7362634;19;20022;-59
2023/07/05 09:04:25;;;;;;;0.10;0.10;;;;;;;18.48;58.39;100440.34;7362003;19;20067;-59
2023/07/05 09:07:03;;;;;;;0.10;0.10;;;;;;;18.54;57.44;100441.75;7364817;19;20847;-59
2023/07/05 09:09:40;;;;;;;0.03;0.03;;;;;;;18.66;57.66;100441.88;7361980;19;20018;-59
2023/07/05 09:12:06;;;;;;;;;;;;;;;18.74;57.65;100444.09;7365466;19;20078;-59
2023/07/05 09:14:49;;;;;;;0.00;0.00;;;;;;;18.73;57.08;100442.38;7361447;19;19940;-59
2023/07/05 09:17:30;;;;;;;0.10;0.10;;;;;;;18.68;56.41;100439.16;7361241;19;20015;-59
2023/07/05 09:20:20;;;;;;;0.08;0.08;;;;;;;18.64;56.62;100441.09;7361013;19;20015;-59
2023/07/05 09:22:50;;;;;;;0.10;0.10;;;;;;;18.64;56.12;100442.91;7362941;19;20011;-59
2023/07/05 09:25:22;;;;;;;0.10;0.10;;;;;;;18.65;55.84;100436.66;7360727;19;20014;-58
2023/07/05 09:27:55;;;;;;;0.10;0.10;;;;;;;18.73;55.88;100439.75;7362638;19;20477;-59
2023/07/05 09:30:24;;;;;;;0.10;0.10;;;;;;;18.72;55.25;100435.41;7355751;19;20018;-59
2023/07/05 09:33:04;;;;;;;0.10;0.10;;;;;;;18.75;55.25;100431.69;7362491;19;20356;-58
2023/07/05 09:35:34;;;;;;;0.10;0.10;;;;;;;18.87;54.83;100439.75;7360661;19;20011;-59
2023/07/05 09:38:22;;;;;;;0.10;0.10;;;;;;;19.03;56.25;100438.81;7358836;19;20014;-59
2023/07/05 09:41:06;;;;;;;0.10;0.10;;;;;;;19.20;55.85;100441.25;7362347;19;20611;-59
2023/07/05 09:43:34;;;;;;;0.10;0.10;;;;;;;19.38;54.72;100434.81;7363188;19;20654;-59
2023/07/05 09:46:03;;;;;;;0.00;0.00;;;;;;;19.61;54.62;100427.19;7362005;19;20013;-59
2023/07/05 09:48:31;;;;;;;0.10;0.10;;;;;;;19.82;54.62;100433.78;7362844;19;20456;-59
2023/07/05 09:51:03;;;;;;;0.10;0.10;;;;;;;20.14;52.69;100444.03;7363649;19;20864;-59
2023/07/05 09:53:47;;;;;;;0.10;0.10;;;;;;;20.40;53.80;100440.47;7358517;19;20006;-59
2023/07/05 09:56:16;;;;;;;0.10;0.10;;;;;;;20.55;52.11;100451.03;7361317;19;20006;-59
2023/07/05 09:58:44;;;;;;;0.10;0.10;;;;;;;20.60;51.24;100430.34;7360483;19;20014;-59
2023/07/05 10:01:14;;;;;;;0.10;0.10;;;;;;;20.97;52.16;100458.69;7360032;19;20501;-59
2023/07/05 10:03:52;;;;;;;0.10;0.10;;;;;;;21.23;51.66;100440.91;7356198;19;20014;-59
2023/07/05 10:06:19;;;;;;;0.10;0.10;;;;;;;21.27;49.91;100438.91;7357315;19;20552;-60
2023/07/05 10:08:48;;;;;;;0.10;0.10;;;;;;;21.37;48.68;100447.94;7358229;19;20022;-58
2023/07/05 10:11:24;;;;;;;0.10;0.10;;;;;;;21.41;50.01;100446.75;7357101;19;21114;-59
2023/07/05 10:14:12;;;;;;;0.10;0.10;;;;;;;21.38;51.48;100439.00;7357738;19;20085;-59
2023/07/05 10:16:51;;;;;;;0.05;0.05;;;;;;;21.35;50.38;100433.09;7355263;19;20015;-59
2023/07/05 10:19:26;;;;;;;0.10;0.10;;;;;;;21.36;50.30;100440.94;7353715;19;20025;-59
2023/07/05 10:22:04;;;;;;;0.10;0.10;;;;;;;21.36;49.33;100432.97;7357122;19;20481;-59
2023/07/05 10:24:32;;;;;;;0.10;0.10;;;;;;;21.35;49.24;100425.97;7358447;19;20736;-59
2023/07/05 10:27:22;;;;;;;0.10;0.10;;;;;;;21.40;49.49;100437.09;7360745;19;20011;-58
2023/07/05 10:29:49;;;;;;;0.10;0.10;;;;;;;21.46;50.13;100452.59;7358656;19;20235;-59
2023/07/05 10:32:19;;;;;;;0.10;0.10;;;;;;;21.66;50.55;100426.38;7360983;19;20482;-59
2023/07/05 10:34:49;;;;;;;0.05;0.05;;;;;;;21.92;49.42;100427.97;7358603;19;20026;-59
2023/07/05 10:37:32;;;;;;;0.10;0.10;;;;;;;22.28;50.31;100439.50;7360718;19;20109;-59
2023/07/05 10:40:00;;;;;;;0.10;0.10;;;;;;;22.46;47.54;100418.63;7359523;19;20026;-59
2023/07/05 10:42:26;;;;;;;0.10;0.10;;;;;;;22.73;46.98;100428.94;7361894;19;20014;-59
2023/07/05 10:44:52;;;;;;;0.00;0.00;;;;;;;22.98;46.82;100423.41;7360152;19;20014;-59
2023/07/05 10:47:19;;;;;;;0.05;0.05;;;;;;;23.22;46.82;100428.63;7356721;19;20759;-59
2023/07/05 10:49:47;;;;;;;0.10;0.10;;;;;;;23.47;44.91;100435.50;7360726;19;20025;-59
2023/07/05 10:52:16;;;;;;;0.10;0.10;;;;;;;23.69;45.92;100417.78;7361501;19;20022;-59
2023/07/05 10:55:09;;;;;;;0.10;0.10;;;;;;;23.90;47.01;100426.66;7358039;19;20287;-59
2023/07/05 10:57:36;;;;;;;0.10;0.10;;;;;;;23.95;44.23;100427.13;7257463;19;2004384;-59
2023/07/05 11:00:38;;;;;;;0.10;0.10;;;;;;;24.15;46.70;100429.97;7360582;19;20102;-59
2023/07/05 11:03:28;;;;;;;0.10;0.10;;;;;;;24.21;45.16;100429.44;7259653;19;2004018;-59
2023/07/05 11:05:58;;;;;;;0.10;0.10;;;;;;;24.23;43.65;100419.47;7256171;19;2004510;-59
2023/07/05 11:08:29;;;;;;;0.08;0.08;;;;;;;24.29;44.20;100416.31;7359047;19;20019;-59
2023/07/05 11:10:58;;;;;;;0.10;0.10;;;;;;;24.27;43.75;100421.75;7359717;19;20018;-59
2023/07/05 11:13:23;;;;;;;0.10;0.10;;;;;;;24.23;42.73;100422.16;7358008;19;20026;-59
2023/07/05 11:15:49;;;;;;;0.10;0.10;;;;;;;24.21;43.32;100424.09;7359922;19;20015;-59
2023/07/05 11:18:23;;;;;;;0.20;0.20;;;;;;;24.27;45.20;100418.25;7358225;19;20014;-59
2023/07/05 11:20:54;;;;;;;0.10;0.10;;;;;;;24.35;44.93;100421.13;7359654;19;20006;-59
2023/07/05 11:23:50;;;;;;;0.10;0.10;;;;;;;24.58;46.33;100417.38;7359933;19;20525;-59
2023/07/05 11:26:30;;;;;;;0.13;0.13;;;;;;;24.74;44.78;100411.56;7257730;19;2004412;-57
2023/07/05 11:28:55;;;;;;;0.10;0.10;;;;;;;24.79;42.61;100419.19;7360380;19;20025;-57
2023/07/05 11:31:27;;;;;;;0.10;0.10;;;;;;;24.95;43.41;100430.22;7359415;19;20757;-57
2023/07/05 11:34:20;;;;;;;0.10;0.10;;;;;;;25.05;44.42;100408.88;7358360;19;20594;-57